Time;durP1;ratioP1;P1;durP2;ratioP2;P2;SDS_P1;SDS_P2;PMS_P1;PMS_P2;Temp;Humidity;BMP_temperature;BMP_pressure;BME280_temperature;BME280_humidity;BME280_pressure;Samples;Min_cycle;Max_cycle;Signal;HPM_P1;HPM_P2
2023/09/08 00:00:51;;;;;;;9.93;6.38;;;16.10;99.90;;;;;;5101088;28;20685;-77
2023/09/08 00:03:26;;;;;;;13.93;6.45;;;16.10;99.90;;;;;;5100238;28;20267;-75
2023/09/08 00:05:55;;;;;;;11.85;6.90;;;16.10;99.90;;;;;;5102580;28;20180;-79
2023/09/08 00:08:25;;;;;;;10.15;6.20;;;16.10;99.90;;;;;;5101853;28;20222;-79
2023/09/08 00:10:51;;;;;;;8.25;6.38;;;16.10;99.90;;;;;;5103957;28;20180;-79
2023/09/08 00:13:17;;;;;;;9.07;6.18;;;16.10;99.90;;;;;;5120148;28;20219;-78
2023/09/08 00:15:44;;;;;;;10.32;6.43;;;16.10;99.90;;;;;;5098978;28;20177;-77
2023/09/08 00:18:11;;;;;;;7.55;5.78;;;16.10;99.90;;;;;;5097861;28;20245;-76
2023/09/08 00:20:37;;;;;;;8.00;6.45;;;16.00;99.90;;;;;;5097710;28;20191;-77
2023/09/08 00:23:06;;;;;;;8.00;6.10;;;16.10;99.90;;;;;;5115915;28;20176;-78
2023/09/08 00:25:36;;;;;;;9.43;6.13;;;16.10;99.90;;;;;;5097941;28;20180;-78
2023/09/08 00:28:06;;;;;;;12.05;6.78;;;16.10;99.90;;;;;;5097446;28;20207;-77
2023/09/08 00:30:38;;;;;;;7.55;5.95;;;16.20;99.90;;;;;;5097185;28;20187;-78
2023/09/08 00:33:09;;;;;;;12.30;6.55;;;16.10;99.90;;;;;;5116328;28;20196;-78
2023/09/08 00:35:40;;;;;;;9.55;6.53;;;16.00;99.90;;;;;;5097710;28;20348;-77
2023/09/08 00:38:06;;;;;;;8.88;7.20;;;16.00;99.90;;;;;;5097422;28;20281;-78
2023/09/08 00:40:36;;;;;;;9.65;7.25;;;15.90;99.90;;;;;;5096799;28;20644;-76
2023/09/08 00:43:02;;;;;;;10.85;7.35;;;15.90;99.90;;;;;;5115780;28;20583;-77
2023/09/08 00:45:31;;;;;;;11.02;7.00;;;15.80;99.90;;;;;;5097687;28;20188;-77
2023/09/08 00:47:57;;;;;;;9.93;7.38;;;15.80;99.90;;;;;;5098257;28;20211;-76
2023/09/08 00:50:25;;;;;;;9.63;6.88;;;15.90;99.90;;;;;;5097201;28;20641;-76
2023/09/08 00:52:51;;;;;;;11.70;7.38;;;15.90;99.90;;;;;;5097170;28;20208;-76
2023/09/08 00:55:18;;;;;;;8.98;6.18;;;15.80;99.90;;;;;;5097021;28;20172;-78
2023/09/08 00:57:44;;;;;;;8.25;6.38;;;15.90;99.90;;;;;;5097295;28;20280;-76
2023/09/08 01:00:13;;;;;;;11.52;7.13;;;15.90;99.90;;;;;;5096900;28;20184;-77
2023/09/08 01:02:45;;;;;;;11.27;7.20;;;15.80;99.90;;;;;;5096311;28;20185;-77
2023/09/08 01:05:23;;;;;;;9.88;6.80;;;15.70;99.90;;;;;;5094821;28;20179;-77
2023/09/08 01:07:50;;;;;;;9.32;7.03;;;15.60;99.90;;;;;;5094799;28;20203;-77
2023/09/08 01:10:22;;;;;;;12.40;7.72;;;15.60;99.90;;;;;;5076252;28;20318;-77
2023/09/08 01:13:00;;;;;;;11.35;7.25;;;15.60;99.90;;;;;;5076609;28;20197;-77
2023/09/08 01:15:26;;;;;;;10.35;7.97;;;15.60;99.90;;;;;;5078286;28;20470;-77
2023/09/08 01:17:54;;;;;;;9.88;7.75;;;15.60;99.90;;;;;;5096164;28;20204;-77
2023/09/08 01:20:41;;;;;;;11.93;8.05;;;15.40;99.90;;;;;;5096371;28;20188;-77
2023/09/08 01:23:24;;;;;;;10.68;7.70;;;15.50;99.90;;;;;;5096462;28;20749;-77
2023/09/08 01:26:13;;;;;;;12.02;8.25;;;15.40;99.90;;;;;;5088722;28;20193;-78
2023/09/08 01:28:40;;;;;;;8.50;7.25;;;15.40;99.90;;;;;;5078883;28;20188;-78
2023/09/08 01:31:14;;;;;;;10.50;7.45;;;15.40;99.90;;;;;;5090082;28;20647;-79
2023/09/08 01:33:54;;;;;;;11.48;8.32;;;15.40;99.90;;;;;;5099995;28;20180;-79
2023/09/08 01:36:20;;;;;;;12.27;7.57;;;15.40;99.90;;;;;;5097679;28;20208;-79
2023/09/08 01:39:05;;;;;;;10.90;8.10;;;15.30;99.90;;;;;;5097865;28;20599;-77
2023/09/08 01:41:33;;;;;;;8.95;6.65;;;15.30;99.90;;;;;;5086260;28;20184;-79
2023/09/08 01:44:07;;;;;;;9.30;7.60;;;15.30;99.90;;;;;;5077931;28;20193;-79
2023/09/08 01:46:34;;;;;;;11.35;7.45;;;15.40;99.90;;;;;;5091228;28;20281;-78
2023/09/08 01:49:00;;;;;;;9.00;7.72;;;15.30;99.90;;;;;;5096682;28;20207;-78
2023/09/08 01:51:37;;;;;;;9.80;7.20;;;15.20;99.90;;;;;;5077683;28;20181;-78
2023/09/08 01:54:06;;;;;;;10.02;7.68;;;15.20;99.90;;;;;;5077348;28;20594;-77
2023/09/08 01:56:35;;;;;;;9.63;6.82;;;15.20;99.90;;;;;;5078119;28;20283;-79
2023/09/08 01:59:01;;;;;;;11.25;6.28;;;15.10;99.90;;;;;;5095766;28;20181;-78
2023/09/08 02:01:29;;;;;;;10.48;7.32;;;15.10;99.90;;;;;;5098419;28;20704;-78
2023/09/08 02:03:55;;;;;;;10.82;7.75;;;15.10;99.90;;;;;;5098011;28;20205;-78
2023/09/08 02:06:21;;;;;;;11.27;8.05;;;15.10;99.90;;;;;;5097877;28;20656;-79
2023/09/08 02:08:52;;;;;;;13.27;7.20;;;15.00;99.90;;;;;;5120748;28;20172;-78
2023/09/08 02:11:21;;;;;;;9.15;7.47;;;14.90;99.90;;;;;;5103487;28;20211;-79
2023/09/08 02:13:46;;;;;;;10.98;6.78;;;14.90;99.90;;;;;;5104537;28;20266;-78
2023/09/08 02:16:29;;;;;;;9.57;7.03;;;14.90;99.90;;;;;;5105275;28;20204;-79
2023/09/08 02:18:55;;;;;;;10.32;6.45;;;14.90;99.90;;;;;;5108320;28;20179;-78
2023/09/08 02:21:24;;;;;;;9.82;6.68;;;14.90;99.90;;;;;;5085739;28;20212;-78
2023/09/08 02:23:51;;;;;;;8.15;6.38;;;14.90;99.90;;;;;;5096895;28;20219;-78
2023/09/08 02:26:17;;;;;;;8.30;6.90;;;14.90;99.90;;;;;;5104320;28;20546;-78
2023/09/08 02:28:43;;;;;;;8.40;7.05;;;14.90;99.90;;;;;;5120334;28;20199;-80
2023/09/08 02:31:12;;;;;;;9.15;7.28;;;14.90;99.90;;;;;;5102307;28;20519;-78
2023/09/08 02:33:38;;;;;;;8.85;7.47;;;14.90;99.90;;;;;;5097486;28;20244;-79
2023/09/08 02:36:05;;;;;;;12.05;8.02;;;14.80;99.90;;;;;;5081421;28;20185;-78
2023/09/08 02:38:35;;;;;;;11.38;7.68;;;14.80;99.90;;;;;;5081187;28;20293;-78
2023/09/08 02:41:08;;;;;;;12.15;8.80;;;14.90;99.90;;;;;;5099890;28;20526;-79
2023/09/08 02:43:36;;;;;;;12.98;8.90;;;14.80;99.90;;;;;;5081344;28;20187;-77
2023/09/08 02:46:06;;;;;;;11.02;9.18;;;14.80;99.90;;;;;;5106318;28;20179;-77
2023/09/08 02:48:34;;;;;;;11.05;8.85;;;14.70;99.90;;;;;;5101953;28;20274;-79
2023/09/08 02:50:59;;;;;;;12.05;9.63;;;14.80;99.90;;;;;;5101604;28;20183;-79
2023/09/08 02:53:28;;;;;;;13.05;9.88;;;14.80;99.90;;;;;;5109916;28;20204;-77
2023/09/08 02:55:55;;;;;;;16.20;10.23;;;14.90;99.90;;;;;;5081027;28;20177;-78
2023/09/08 02:58:21;;;;;;;12.00;9.57;;;14.80;99.90;;;;;;5081020;28;20243;-79
2023/09/08 03:00:51;;;;;;;11.13;9.43;;;14.80;99.90;;;;;;5080858;28;20604;-79
2023/09/08 03:03:23;;;;;;;12.93;9.80;;;14.70;99.90;;;;;;5086682;28;20180;-80
2023/09/08 03:06:00;;;;;;;11.35;9.02;;;14.70;99.90;;;;;;5101541;28;20169;-79
2023/09/08 03:08:29;;;;;;;10.48;8.70;;;14.60;99.90;;;;;;5098663;28;20218;-77
2023/09/08 03:10:59;;;;;;;10.57;8.20;;;14.70;99.90;;;;;;5100142;28;20187;-79
2023/09/08 03:13:28;;;;;;;14.02;9.30;;;14.60;99.90;;;;;;5111678;28;20201;-79
2023/09/08 03:16:04;;;;;;;11.82;8.82;;;14.60;99.90;;;;;;5081012;28;20195;-79
2023/09/08 03:18:29;;;;;;;12.85;8.95;;;14.60;99.90;;;;;;5116357;28;20203;-78
2023/09/08 03:20:55;;;;;;;15.88;9.20;;;14.60;99.90;;;;;;5084785;28;20185;-79
2023/09/08 03:23:21;;;;;;;11.63;9.40;;;14.60;99.90;;;;;;5102527;28;20181;-77
2023/09/08 03:25:51;;;;;;;11.55;8.77;;;14.60;99.90;;;;;;5102145;28;20176;-78
2023/09/08 03:28:16;;;;;;;12.52;8.25;;;14.50;99.90;;;;;;5101539;28;20200;-78
2023/09/08 03:30:42;;;;;;;11.27;8.80;;;14.50;99.90;;;;;;5100894;28;20176;-78
2023/09/08 03:33:13;;;;;;;10.75;8.57;;;14.50;99.90;;;;;;5119419;28;20643;-78
2023/09/08 03:35:39;;;;;;;12.88;8.90;;;14.50;99.90;;;;;;5102006;28;20168;-78
2023/09/08 03:38:04;;;;;;;11.75;8.30;;;14.40;99.90;;;;;;5101235;28;20638;-78
2023/09/08 03:40:30;;;;;;;16.33;8.75;;;14.30;99.90;;;;;;5119832;28;20171;-78
2023/09/08 03:42:56;;;;;;;10.25;8.30;;;14.30;99.90;;;;;;5098974;28;20192;-77
2023/09/08 03:45:22;;;;;;;11.50;8.20;;;14.30;99.90;;;;;;5100684;28;20181;-79
2023/09/08 03:47:48;;;;;;;17.80;9.27;;;14.30;99.90;;;;;;5102391;28;20203;-78
2023/09/08 03:50:14;;;;;;;12.23;8.25;;;14.20;99.90;;;;;;5126613;28;20192;-77
2023/09/08 03:52:42;;;;;;;10.77;9.23;;;14.20;99.90;;;;;;5128637;28;20192;-78
2023/09/08 03:55:11;;;;;;;11.32;9.00;;;14.20;99.90;;;;;;5101919;28;20200;-79
2023/09/08 03:57:37;;;;;;;10.75;8.57;;;14.20;99.90;;;;;;5100632;28;20289;-78
2023/09/08 04:00:05;;;;;;;9.57;8.00;;;14.20;99.90;;;;;;5117935;28;20252;-77
2023/09/08 04:02:30;;;;;;;11.77;8.30;;;14.20;99.90;;;;;;5079876;28;20567;-79
2023/09/08 04:04:56;;;;;;;12.15;8.10;;;14.10;99.90;;;;;;5079662;28;20185;-78
2023/09/08 04:07:22;;;;;;;11.10;8.25;;;14.10;99.90;;;;;;5111514;28;20211;-78
2023/09/08 04:09:47;;;;;;;12.95;9.68;;;14.00;99.90;;;;;;5099464;28;20180;-79
2023/09/08 04:12:13;;;;;;;9.05;7.53;;;14.10;99.90;;;;;;5099701;28;20292;-78
2023/09/08 04:14:46;;;;;;;11.70;7.57;;;14.00;99.90;;;;;;5117324;28;20204;-79
2023/09/08 04:17:12;;;;;;;13.50;8.07;;;14.00;99.90;;;;;;5117857;28;20607;-79
2023/09/08 04:19:59;;;;;;;8.88;6.95;;;14.00;99.90;;;;;;5093062;28;20181;-79
2023/09/08 04:22:25;;;;;;;11.65;8.23;;;14.00;99.90;;;;;;5080899;28;20277;-78
2023/09/08 04:24:51;;;;;;;10.77;7.80;;;14.00;99.90;;;;;;5098910;28;20188;-79
2023/09/08 04:27:16;;;;;;;7.30;6.53;;;14.00;99.90;;;;;;5099300;28;20228;-80
2023/09/08 04:29:42;;;;;;;11.98;7.85;;;14.00;99.90;;;;;;5099476;28;20187;-78
2023/09/08 04:32:11;;;;;;;10.15;7.80;;;14.00;99.90;;;;;;5097593;28;20232;-78
2023/09/08 04:34:41;;;;;;;11.00;8.48;;;13.90;99.90;;;;;;5079048;28;20640;-79
2023/09/08 04:37:10;;;;;;;11.43;8.90;;;13.90;99.90;;;;;;5097838;28;20208;-78
2023/09/08 04:39:36;;;;;;;10.63;8.15;;;13.90;99.90;;;;;;5096977;28;20181;-78
2023/09/08 04:42:03;;;;;;;10.95;8.45;;;13.90;99.90;;;;;;5078554;28;20181;-78
2023/09/08 04:44:29;;;;;;;10.30;8.30;;;13.90;99.90;;;;;;5078642;28;20181;-78
2023/09/08 04:46:55;;;;;;;10.15;8.80;;;13.80;99.90;;;;;;5095987;28;20672;-78
2023/09/08 04:57:06;;;;;;;12.52;9.68;;;13.90;99.90;;;;;;5095149;28;20212;-91
2023/09/08 04:59:32;;;;;;;13.27;9.88;;;13.80;99.90;;;;;;5078575;28;20209;-88
2023/09/08 05:01:59;;;;;;;19.98;11.05;;;13.90;99.90;;;;;;5080396;28;20223;-92
2023/09/08 05:04:31;;;;;;;13.02;11.30;;;13.90;99.90;;;;;;5079695;28;20178;-89
2023/09/08 05:07:00;;;;;;;12.65;10.88;;;13.90;99.90;;;;;;5080732;28;20169;-92
2023/09/08 05:09:28;;;;;;;13.40;10.20;;;13.90;99.90;;;;;;5078143;28;20208;-88
2023/09/08 05:11:54;;;;;;;14.32;10.25;;;13.90;99.90;;;;;;5077743;28;20205;-90
2023/09/08 05:14:20;;;;;;;13.57;10.10;;;13.90;99.90;;;;;;5095334;28;20620;-87
2023/09/08 05:16:55;;;;;;;13.15;9.90;;;14.00;99.90;;;;;;5077682;28;20307;-87
2023/09/08 05:19:22;;;;;;;13.75;9.90;;;13.90;99.90;;;;;;5077547;28;20225;-88
2023/09/08 05:21:50;;;;;;;12.60;9.75;;;13.90;99.90;;;;;;5076844;28;20654;-87
2023/09/08 05:24:16;;;;;;;11.68;9.45;;;14.00;99.90;;;;;;5077751;28;20177;-87
2023/09/08 05:26:42;;;;;;;14.50;10.82;;;14.00;99.90;;;;;;5077727;28;20183;-88
2023/09/08 05:29:13;;;;;;;17.23;10.52;;;14.00;99.90;;;;;;5076715;28;20274;-88
2023/09/08 05:31:39;;;;;;;11.88;9.90;;;14.10;99.90;;;;;;5077566;28;20176;-89
2023/09/08 05:34:05;;;;;;;14.18;10.70;;;14.10;99.90;;;;;;5077325;28;20184;-90
2023/09/08 05:36:32;;;;;;;12.75;9.77;;;14.20;99.90;;;;;;5076637;28;20248;-90
2023/09/08 05:38:59;;;;;;;14.27;10.30;;;14.20;99.90;;;;;;5077453;28;20254;-91
2023/09/08 05:41:26;;;;;;;15.75;11.85;;;14.20;99.90;;;;;;5058546;28;20182;-89
2023/09/08 05:43:52;;;;;;;16.15;12.23;;;14.30;99.90;;;;;;5066353;28;20189;-91
2023/09/08 05:46:23;;;;;;;14.00;10.75;;;14.40;99.90;;;;;;5057192;28;20222;-91
2023/09/08 05:48:50;;;;;;;15.10;10.98;;;14.40;99.90;;;;;;5058090;28;20668;-91
2023/09/08 05:51:24;;;;;;;18.83;10.93;;;14.50;99.90;;;;;;5074073;28;20166;-94
2023/09/08 05:53:50;;;;;;;15.88;11.25;;;14.50;99.90;;;;;;5075393;28;20223;-90
2023/09/08 05:56:19;;;;;;;13.85;10.73;;;14.50;99.90;;;;;;5073696;28;20190;-90
2023/09/08 05:58:45;;;;;;;13.82;11.20;;;14.60;99.90;;;;;;5073792;28;20173;-92
2023/09/08 06:01:14;;;;;;;17.13;11.77;;;14.70;99.90;;;;;;5092028;28;20188;-91
2023/09/08 06:03:57;;;;;;;16.90;10.73;;;14.70;99.90;;;;;;5093162;28;20184;-89
2023/09/08 06:06:23;;;;;;;14.90;11.50;;;14.80;99.90;;;;;;5083964;28;20165;-87
2023/09/08 06:08:49;;;;;;;17.85;11.27;;;14.90;99.90;;;;;;5102372;28;20205;-89
2023/09/08 06:11:15;;;;;;;13.27;10.18;;;15.00;99.90;;;;;;5084369;28;20193;-88
2023/09/08 06:13:42;;;;;;;13.25;9.43;;;15.00;99.90;;;;;;5077079;28;20292;-90
2023/09/08 06:16:10;;;;;;;10.45;9.20;;;15.10;99.90;;;;;;5062639;28;20169;-90
2023/09/08 06:18:39;;;;;;;13.57;9.70;;;15.10;99.90;;;;;;5058340;28;20245;-89
2023/09/08 06:21:11;;;;;;;12.55;9.32;;;15.20;99.90;;;;;;5067109;28;20191;-90
2023/09/08 06:23:37;;;;;;;12.10;9.63;;;15.20;99.90;;;;;;5071607;28;20194;-91
2023/09/08 06:26:03;;;;;;;11.57;8.70;;;15.30;99.90;;;;;;5061804;28;20181;-90
2023/09/08 06:28:29;;;;;;;15.75;10.05;;;15.40;99.90;;;;;;5068178;28;20201;-91
2023/09/08 06:31:01;;;;;;;9.68;8.07;;;15.50;99.90;;;;;;5067336;28;20678;-91
2023/09/08 06:33:27;;;;;;;10.52;8.20;;;15.60;99.90;;;;;;5064960;28;20687;-93
2023/09/08 06:35:53;;;;;;;13.82;8.80;;;15.70;99.90;;;;;;5065528;28;20200;-88
2023/09/08 06:38:24;;;;;;;10.30;8.65;;;15.80;99.90;;;;;;5070742;28;20192;-87
2023/09/08 06:40:52;;;;;;;10.32;7.78;;;15.90;99.90;;;;;;5071388;28;20205;-85
2023/09/08 06:43:20;;;;;;;11.80;8.85;;;16.10;99.90;;;;;;5065022;28;20254;-88
2023/09/08 06:45:49;;;;;;;13.35;8.80;;;16.10;99.90;;;;;;5061657;28;20638;-88
2023/09/08 06:48:16;;;;;;;12.13;8.02;;;16.30;99.90;;;;;;5060283;28;20182;-85
2023/09/08 06:50:47;;;;;;;12.10;9.20;;;16.40;99.90;;;;;;5060795;28;20244;-86
2023/09/08 06:53:17;;;;;;;12.95;9.30;;;16.50;99.90;;;;;;5073389;28;20208;-86
2023/09/08 06:55:43;;;;;;;10.90;8.40;;;16.60;99.90;;;;;;5068396;28;20247;-86
2023/09/08 06:58:11;;;;;;;10.70;7.85;;;16.70;99.90;;;;;;5074640;28;20658;-86
2023/09/08 07:00:42;;;;;;;11.48;9.20;;;16.80;99.90;;;;;;5087251;28;20246;-85
2023/09/08 07:03:08;;;;;;;11.25;8.45;;;16.90;99.90;;;;;;5080531;28;20180;-88
2023/09/08 07:05:35;;;;;;;13.02;9.80;;;17.10;99.90;;;;;;5089963;28;21025;-87
2023/09/08 07:08:42;;;;;;;13.88;10.00;;;17.20;99.90;;;;;;5076348;28;20177;-93
2023/09/08 07:11:11;;;;;;;12.23;9.10;;;17.30;99.90;;;;;;5078257;28;20208;-91
2023/09/08 07:13:45;;;;;;;10.23;8.05;;;17.40;99.90;;;;;;5079469;28;20181;-91
2023/09/08 07:16:20;;;;;;;13.43;10.32;;;17.50;99.90;;;;;;5086373;28;20248;-91
2023/09/08 07:19:08;;;;;;;12.00;8.63;;;17.60;99.90;;;;;;5088762;28;20195;-90
2023/09/08 07:21:38;;;;;;;13.32;8.75;;;17.80;99.90;;;;;;5094305;28;20173;-91
2023/09/08 07:30:20;;;;;;;11.18;8.40;;;18.30;99.90;;;;;;5090312;28;20228;-90
2023/09/08 07:32:49;;;;;;;9.50;7.60;;;18.50;99.90;;;;;;5086551;28;20240;-91
2023/09/08 07:35:32;;;;;;;9.40;7.95;;;18.60;99.90;;;;;;5086914;28;20279;-90
2023/09/08 07:38:13;;;;;;;12.60;8.70;;;18.80;99.90;;;;;;5094495;27;20630;-74
2023/09/08 07:40:41;;;;;;;13.30;8.65;;;18.90;99.90;;;;;;5067084;28;20580;-73
2023/09/08 07:43:07;;;;;;;9.10;8.00;;;19.10;99.90;;;;;;5050240;28;20589;-74
2023/09/08 07:45:33;;;;;;;12.88;9.43;;;19.20;99.90;;;;;;5051455;28;20169;-73
2023/09/08 07:48:02;;;;;;;13.57;8.85;;;19.30;99.90;;;;;;5051695;28;20167;-77
2023/09/08 07:50:29;;;;;;;11.35;8.63;;;19.40;99.90;;;;;;5050497;28;20270;-76
2023/09/08 07:52:58;;;;;;;12.65;8.82;;;19.60;99.90;;;;;;5053299;28;20174;-74
2023/09/08 07:55:28;;;;;;;14.00;9.95;;;19.70;99.90;;;;;;5049610;28;20179;-76
2023/09/08 07:57:59;;;;;;;13.27;8.65;;;19.90;99.90;;;;;;5049590;28;20233;-77
2023/09/08 08:00:26;;;;;;;11.38;8.65;;;20.00;99.90;;;;;;5051657;28;20155;-74
2023/09/08 08:02:58;;;;;;;11.02;8.50;;;20.10;99.90;;;;;;5051761;28;20174;-76
2023/09/08 08:05:26;;;;;;;11.55;8.70;;;20.20;99.90;;;;;;5050105;28;20644;-73
2023/09/08 08:07:53;;;;;;;14.80;8.40;;;20.30;99.90;;;;;;5049416;28;20174;-73
2023/09/08 08:10:21;;;;;;;13.40;8.55;;;20.40;99.90;;;;;;5048810;28;20272;-73
2023/09/08 08:18:26;;;;;;;11.38;7.65;;;20.80;99.90;;;;;;5036251;28;20242;-75
2023/09/08 08:20:51;;;;;;;11.93;8.15;;;21.00;99.90;;;;;;5014578;28;20606;-76
2023/09/08 08:23:17;;;;;;;12.13;8.07;;;21.10;99.90;;;;;;5040927;28;20175;-78
2023/09/08 08:25:43;;;;;;;11.40;7.57;;;21.30;99.90;;;;;;5013760;28;20697;-76
2023/09/08 08:28:10;;;;;;;9.93;7.40;;;21.40;99.90;;;;;;5013090;28;20762;-77
2023/09/08 08:30:36;;;;;;;9.80;7.18;;;21.60;99.90;;;;;;5012500;28;20262;-76
2023/09/08 08:33:04;;;;;;;14.50;7.20;;;21.80;99.90;;;;;;5030417;28;20183;-77
2023/09/08 08:35:29;;;;;;;10.25;7.35;;;22.00;99.90;;;;;;5012262;28;20675;-76
2023/09/08 08:37:58;;;;;;;9.18;7.03;;;22.30;99.90;;;;;;5012592;28;20257;-76
2023/09/08 08:40:30;;;;;;;11.75;6.95;;;22.40;99.90;;;;;;5029844;28;20163;-77
2023/09/08 08:42:56;;;;;;;10.00;6.75;;;22.70;99.90;;;;;;5012172;28;20184;-76
2023/09/08 08:45:24;;;;;;;11.07;6.40;;;22.80;99.90;;;;;;5005768;28;20207;-78
2023/09/08 08:47:51;;;;;;;11.10;6.88;;;23.00;99.90;;;;;;5009593;28;20306;-77
2023/09/08 08:50:18;;;;;;;8.43;6.50;;;23.30;99.90;;;;;;4987451;28;20275;-77
2023/09/08 08:52:44;;;;;;;7.90;6.07;;;23.50;99.90;;;;;;4979498;28;20168;-77
2023/09/08 08:55:11;;;;;;;7.25;5.82;;;23.70;99.90;;;;;;4980191;28;20295;-77
2023/09/08 08:57:41;;;;;;;6.13;5.35;;;24.00;99.90;;;;;;4980430;28;20228;-78
2023/09/08 09:00:15;;;;;;;8.90;5.35;;;24.30;99.90;;;;;;4980627;28;20184;-79
2023/09/08 09:02:43;;;;;;;8.13;5.20;;;24.50;1.00;;;;;;4980634;28;20176;-79
2023/09/08 09:05:13;;;;;;;10.50;5.35;;;24.60;99.90;;;;;;4998498;28;20193;-76
2023/09/08 09:07:41;;;;;;;7.80;5.53;;;24.70;99.90;;;;;;4979383;28;20655;-76
2023/09/08 09:10:07;;;;;;;7.72;5.85;;;24.90;99.90;;;;;;4979333;28;20654;-77
2023/09/08 09:12:33;;;;;;;10.25;5.40;;;25.00;99.90;;;;;;4996538;28;20164;-76
2023/09/08 09:15:04;;;;;;;7.07;5.18;;;25.10;99.90;;;;;;4979317;28;20201;-75
2023/09/08 09:17:38;;;;;;;7.22;5.60;;;25.20;19.30;;;;;;4979480;28;20219;-76
2023/09/08 09:20:20;;;;;;;7.90;5.10;;;25.40;85.40;;;;;;4979476;28;20207;-76
2023/09/08 09:22:48;;;;;;;7.85;5.00;;;25.50;89.60;;;;;;4979131;28;20164;-76
2023/09/08 09:25:28;;;;;;;9.18;5.22;;;25.60;1.00;;;;;;4978915;28;20207;-77
2023/09/08 09:27:59;;;;;;;8.30;5.75;;;25.70;57.30;;;;;;4996578;28;20248;-77
2023/09/08 09:30:26;;;;;;;7.75;4.90;;;25.80;62.50;;;;;;4978782;28;20169;-77
2023/09/08 09:33:02;;;;;;;12.05;5.47;;;25.80;1.00;;;;;;4978619;28;20179;-77
2023/09/08 09:35:42;;;;;;;6.90;5.38;;;26.00;36.20;;;;;;4978769;28;20200;-77
2023/09/08 09:38:10;;;;;;;6.65;5.38;;;26.00;58.70;;;;;;4979062;28;20196;-77
2023/09/08 09:40:37;;;;;;;9.68;5.35;;;26.10;1.00;;;;;;4978873;28;20228;-74
2023/09/08 09:43:04;;;;;;;5.85;4.45;;;26.20;99.90;;;;;;4979079;28;20203;-77
2023/09/08 09:45:33;;;;;;;8.95;4.70;;;26.30;1.00;;;;;;4980373;28;20224;-79
2023/09/08 09:47:59;;;;;;;5.75;4.65;;;26.40;1.00;;;;;;4980339;28;20176;-79
2023/09/08 09:50:33;;;;;;;7.43;4.78;;;26.40;1.00;;;;;;4980043;28;20243;-80
2023/09/08 09:53:10;;;;;;;5.10;4.03;;;26.60;1.00;;;;;;4980527;28;20200;-80
2023/09/08 09:55:38;;;;;;;6.95;5.20;;;26.60;99.90;;;;;;5000053;28;20192;-79
2023/09/08 09:58:05;;;;;;;10.85;4.63;;;26.70;99.90;;;;;;4999924;28;20188;-80
2023/09/08 10:00:34;;;;;;;7.75;4.32;;;26.80;99.90;;;;;;4981055;28;20601;-80
2023/09/08 10:03:00;;;;;;;6.60;4.60;;;26.60;1.00;;;;;;4981952;28;20173;-80
2023/09/08 10:05:27;;;;;;;7.07;4.28;;;26.70;1.00;;;;;;5000158;28;20221;-80
2023/09/08 10:07:53;;;;;;;7.40;4.85;;;26.80;1.00;;;;;;4998800;28;20512;-79
2023/09/08 10:10:20;;;;;;;5.25;4.72;;;26.80;1.00;;;;;;4980497;28;20188;-79
2023/09/08 10:12:53;;;;;;;7.35;4.55;;;26.80;39.30;;;;;;4980725;28;20211;-80
2023/09/08 10:15:23;;;;;;;5.78;4.70;;;26.90;1.00;;;;;;4980452;28;20200;-79
2023/09/08 10:17:55;;;;;;;6.28;4.43;;;27.00;1.00;;;;;;4997964;28;20293;-80
2023/09/08 10:20:23;;;;;;;6.55;4.32;;;26.90;1.00;;;;;;4981277;28;20220;-79
2023/09/08 10:22:54;;;;;;;4.63;4.00;;;26.90;1.00;;;;;;4980203;28;20621;-80
2023/09/08 10:25:23;;;;;;;6.95;4.97;;;27.10;1.00;;;;;;4980231;28;20211;-79
2023/09/08 10:27:50;;;;;;;6.10;4.35;;;27.20;99.90;;;;;;4980110;28;20207;-80
2023/09/08 10:30:17;;;;;;;6.40;4.32;;;27.20;99.90;;;;;;4980407;28;20252;-79
2023/09/08 10:32:43;;;;;;;6.65;4.50;;;27.20;99.90;;;;;;4980896;28;20188;-80
2023/09/08 10:35:10;;;;;;;6.88;4.72;;;27.30;1.00;;;;;;4979652;28;20231;-79
2023/09/08 10:37:37;;;;;;;6.93;4.90;;;27.30;1.00;;;;;;4997012;28;20196;-80
2023/09/08 10:40:22;;;;;;;7.05;4.53;;;27.30;1.00;;;;;;4979460;28;20177;-79
2023/09/08 10:42:49;;;;;;;8.63;4.57;;;27.30;99.90;;;;;;4997579;28;20157;-80
2023/09/08 10:45:17;;;;;;;7.13;4.70;;;27.40;34.90;;;;;;4996893;28;20637;-79
2023/09/08 10:47:46;;;;;;;5.93;4.07;;;27.50;1.00;;;;;;4996760;28;20176;-80
2023/09/08 10:50:19;;;;;;;5.32;4.40;;;27.60;1.00;;;;;;4980641;28;20220;-80
2023/09/08 10:53:17;;;;;;;5.78;4.40;;;27.70;1.00;;;;;;4998152;28;20196;-77
2023/09/08 10:55:51;;;;;;;8.77;4.68;;;27.80;1.00;;;;;;4979733;28;20204;-77
2023/09/08 10:58:42;;;;;;;6.18;4.10;;;27.90;99.90;;;;;;4981396;28;20168;-77
2023/09/08 11:01:26;;;;;;;6.43;4.00;;;28.00;99.90;;;;;;4980075;28;20505;-78
2023/09/08 11:03:53;;;;;;;6.03;4.25;;;28.20;1.00;;;;;;4995638;28;20185;-74
2023/09/08 11:06:24;;;;;;;9.25;4.57;;;28.30;99.90;;;;;;4994662;28;20255;-73
2023/09/08 11:08:55;;;;;;;7.38;4.57;;;28.50;97.70;;;;;;4978215;28;20228;-78
2023/09/08 11:11:22;;;;;;;6.38;4.43;;;28.60;1.00;;;;;;4995883;28;20628;-78
2023/09/08 11:13:48;;;;;;;6.32;4.03;;;28.70;1.00;;;;;;4997324;28;20165;-78
2023/09/08 11:16:15;;;;;;;5.88;4.20;;;28.80;1.00;;;;;;4979555;28;20220;-77
2023/09/08 11:18:51;;;;;;;7.25;4.47;;;28.80;99.90;;;;;;4982046;28;20268;-74
2023/09/08 11:21:22;;;;;;;6.93;4.15;;;28.80;65.10;;;;;;4981352;28;20172;-77
2023/09/08 11:23:57;;;;;;;6.82;4.18;;;28.90;1.00;;;;;;4978003;28;20191;-77
2023/09/08 11:26:24;;;;;;;5.45;4.10;;;29.00;1.00;;;;;;4976241;28;20701;-74
2023/09/08 11:28:50;;;;;;;5.20;4.22;;;29.10;1.00;;;;;;4975606;28;20172;-77
2023/09/08 11:31:16;;;;;;;6.70;4.00;;;29.30;1.00;;;;;;4977261;28;20192;-75
2023/09/08 11:33:42;;;;;;;7.43;3.88;;;29.40;1.00;;;;;;4993267;28;20211;-75
2023/09/08 11:36:15;;;;;;;5.00;4.07;;;29.40;1.00;;;;;;4994204;28;20204;-74
2023/09/08 11:38:43;;;;;;;5.43;4.00;;;29.50;1.00;;;;;;4976722;28;20192;-74
2023/09/08 11:41:09;;;;;;;5.75;4.50;;;29.60;1.00;;;;;;4994000;28;20177;-75
2023/09/08 11:43:39;;;;;;;5.45;4.50;;;29.70;1.00;;;;;;4994318;28;20685;-75
2023/09/08 11:46:06;;;;;;;6.55;4.28;;;29.70;99.90;;;;;;4976731;28;20196;-75
2023/09/08 11:48:32;;;;;;;6.10;4.30;;;29.80;99.90;;;;;;4994216;28;20632;-75
2023/09/08 11:51:03;;;;;;;5.05;3.85;;;29.90;99.90;;;;;;4976491;28;20562;-74
2023/09/08 11:53:33;;;;;;;5.05;3.80;;;30.00;99.90;;;;;;4994162;28;20207;-75
2023/09/08 11:56:04;;;;;;;4.82;3.97;;;30.20;99.90;;;;;;4993806;28;20196;-75
2023/09/08 11:58:30;;;;;;;3.97;3.33;;;30.30;99.90;;;;;;4976580;28;20180;-75
2023/09/08 12:01:04;;;;;;;5.15;4.25;;;30.40;99.90;;;;;;5010292;28;20180;-77
2023/09/08 12:03:30;;;;;;;5.97;4.03;;;30.50;99.90;;;;;;4977553;28;20264;-78
2023/09/08 12:05:56;;;;;;;6.45;4.05;;;30.60;99.90;;;;;;4977030;28;20331;-77
2023/09/08 12:08:26;;;;;;;6.35;4.10;;;30.70;99.90;;;;;;4976581;28;20184;-77
2023/09/08 12:10:54;;;;;;;4.93;4.05;;;30.80;99.90;;;;;;4993547;28;20168;-77
2023/09/08 12:13:23;;;;;;;6.68;3.97;;;30.90;99.90;;;;;;4976430;28;20565;-77
2023/09/08 12:15:49;;;;;;;5.07;4.00;;;30.90;99.90;;;;;;4976603;28;20565;-77
2023/09/08 12:18:15;;;;;;;6.28;4.18;;;31.10;99.90;;;;;;5008702;28;20219;-76
2023/09/08 12:20:42;;;;;;;6.38;4.43;;;31.10;99.90;;;;;;5008891;28;20188;-77
2023/09/08 12:23:20;;;;;;;6.07;4.72;;;31.30;99.90;;;;;;4977120;28;20644;-77
2023/09/08 12:25:51;;;;;;;8.63;4.38;;;31.20;99.90;;;;;;4980069;28;20211;-77
2023/09/08 12:28:22;;;;;;;5.55;4.32;;;31.20;99.90;;;;;;4980025;28;20656;-78
2023/09/08 12:30:49;;;;;;;7.40;4.43;;;31.30;99.90;;;;;;4980012;28;20184;-78
2023/09/08 12:33:16;;;;;;;5.15;4.47;;;31.40;99.90;;;;;;4979938;28;20184;-77
2023/09/08 12:35:46;;;;;;;6.32;4.63;;;31.60;99.90;;;;;;4979993;28;20239;-78
2023/09/08 12:38:16;;;;;;;6.00;4.20;;;31.70;99.90;;;;;;4979597;28;20205;-78
2023/09/08 12:40:42;;;;;;;6.80;4.55;;;31.80;99.90;;;;;;4997273;28;20157;-77
2023/09/08 12:43:07;;;;;;;6.03;4.78;;;32.00;99.90;;;;;;4979755;28;20526;-78
2023/09/08 12:45:33;;;;;;;6.53;4.40;;;31.90;99.90;;;;;;4979577;28;20211;-78
2023/09/08 12:48:03;;;;;;;6.53;4.63;;;32.10;99.90;;;;;;4997186;28;20264;-78
2023/09/08 12:50:30;;;;;;;6.22;4.22;;;32.40;99.90;;;;;;4997221;28;20187;-78
2023/09/08 12:52:56;;;;;;;5.65;4.68;;;32.30;99.90;;;;;;4979611;28;20235;-78
2023/09/08 12:55:23;;;;;;;4.90;3.90;;;32.20;99.90;;;;;;4979125;28;20617;-77
2023/09/08 12:57:54;;;;;;;5.70;4.07;;;32.40;99.90;;;;;;4979300;28;20206;-78
2023/09/08 13:00:22;;;;;;;7.05;4.25;;;32.50;99.90;;;;;;4997987;28;20515;-78
2023/09/08 13:02:48;;;;;;;6.20;4.60;;;32.50;99.90;;;;;;4979446;28;20199;-78
2023/09/08 13:05:13;;;;;;;5.28;4.45;;;32.50;99.90;;;;;;4979349;28;20192;-78
2023/09/08 13:07:39;;;;;;;7.88;4.07;;;32.60;99.90;;;;;;4996771;28;20259;-78
2023/09/08 13:10:06;;;;;;;7.68;4.60;;;32.70;99.90;;;;;;4997004;28;20184;-78